KTTD/TTD METAR and TAF weather

Enter ICAO airport designator
Station Type Date Time Source
KTTD METAR 2019/08/19 07:53 UTC NOAA

KTTD 190753Z AUTO 27004KT 10SM CLR 17/13 A2990 RMK AO2 SLP126 T01720128


Station Type Date Time Source
KTTD Decoded METAR 2019/08/19 07:53 UTC NOAA

Station name not available
Aug 19, 2019 - 03:53 AM EDT / 2019.08.19 0753 UTC
Wind: from the W (270 degrees) at 5 MPH (4 KT):0
Visibility: 10 mile(s):0
Sky conditions: clear
Temperature: 63.0 F (17.2 C)
Dew Point: 55.0 F (12.8 C)
Relative Humidity: 75%
Pressure (altimeter): 29.9 in. Hg (1012 hPa)
ob: KTTD 190753Z AUTO 27004KT 10SM CLR 17/13 A2990 RMK AO2 SLP126 T017

Station Type Date Time Source
KTTD TAF 2019/08/19 06:22 UTC NOAA

TAF KTTD 190520Z 1906/2006 31004KT P6SM FEW040
FM190900 VRB02KT P6SM BKN035
FM191200 VRB02KT P6SM BKN025 OVC035
FM191900 32002KT P6SM OVC050

Example: see airport list